Terminal Aerodrome Forecast
Issued by NWS King Salmon, AK

Home | Current Version | Previous Version | Text Only | Print | Product List | Glossary On
Versions: 1 2 3 4 5 6 7 8 9 10 11 12 13 14
000
FTAK31 PANC 291126
TAFAKN
TAF
PAKN 291126Z 2912/3012 20008KT P6SM VCSH SCT015 OVC025
     FM291400 21007KT 5SM BR SCT005 OVC015
     FM291800 22010KT P6SM BKN025
     FM300000 24013G20KT P6SM SCT025 BKN050=

USA.gov is the U.S. government's official web portal to all federal, state and local government web resources and services.